Terminal Aerodrome Forecast
Issued by NWS Grand Rapids, MI

Current Version | Previous Version | Text Only | Print | Product List | Glossary On
Versions: 1 2 3 4 5 6 7 8 9 10 11 12 13 14 15 16 17 18 19 20 21 22 23
123
FTUS43 KGRR 172345
TAFGRR
TAF
KGRR 172345Z 1800/1824 23018G28KT P6SM BKN140
     FM180600 23015G25KT P6SM SCT140
     FM181200 23014G24KT P6SM BKN035
     FM181800 23015G25KT P6SM BKN100=

USA.gov is the U.S. government's official web portal to all federal, state and local government web resources and services.